createdAt,value
2022-09-12T00:04:41.287Z,99888.88
2022-09-12T00:09:42.960Z,99892.78
2022-09-12T00:14:44.566Z,99894.94
2022-09-12T00:19:46.237Z,99893.41
2022-09-12T00:24:47.839Z,99894.88
2022-09-12T00:29:49.461Z,99893.59
2022-09-12T00:34:51.091Z,99893.41
2022-09-12T00:39:52.752Z,99890.31
2022-09-12T00:44:54.449Z,99885.00
2022-09-12T00:50:13.125Z,99871.78
2022-09-12T00:55:19.606Z,99882.41
2022-09-12T01:00:24.283Z,99872.84
2022-09-12T01:05:28.327Z,99880.09
2022-09-12T01:10:31.613Z,99876.16
2022-09-12T01:15:34.054Z,99868.47
2022-09-12T01:20:42.606Z,99866.00
2022-09-12T01:26:14.982Z,99876.09
2022-09-12T01:31:26.716Z,99877.38
2022-09-12T01:36:37.566Z,99879.13
2022-09-12T01:41:46.936Z,99868.00
2022-09-12T01:47:01.081Z,99857.69
2022-09-12T01:52:12.187Z,99858.44
2022-09-12T01:57:25.667Z,99860.91
2022-09-12T02:02:33.313Z,99854.66
2022-09-12T02:07:49.523Z,99854.59
2022-09-12T02:13:00.669Z,99853.81
2022-09-12T02:18:05.534Z,99848.16
2022-09-12T02:23:11.920Z,99843.22
2022-09-12T02:28:26.600Z,99850.81
2022-09-12T02:33:46.995Z,99844.81
2022-09-12T02:38:48.882Z,99839.16
2022-09-12T02:43:51.650Z,99833.84
2022-09-12T02:48:54.141Z,99847.50
2022-09-12T02:53:57.107Z,99843.59
2022-09-12T02:59:05.223Z,99844.94
2022-09-12T03:04:22.068Z,99843.84
2022-09-12T03:09:37.539Z,99850.69
2022-09-12T03:14:48.546Z,99844.13
2022-09-12T03:20:00.758Z,99842.63
2022-09-12T03:25:08.022Z,99841.19
2022-09-12T03:30:11.047Z,99846.72
2022-09-12T03:35:14.345Z,99843.84
2022-09-12T03:40:16.158Z,99841.25
2022-09-12T03:45:17.904Z,99849.91
2022-09-12T03:50:19.576Z,99841.97
2022-09-12T03:55:21.159Z,99848.63
2022-09-12T04:00:24.298Z,99851.69
2022-09-12T04:05:26.655Z,99848.22
2022-09-12T04:10:28.251Z,99851.81
2022-09-12T04:15:29.959Z,99850.09
2022-09-12T04:20:31.566Z,99855.75
2022-09-12T04:25:33.179Z,99853.88
2022-09-12T04:30:35.228Z,99858.28
2022-09-12T04:35:37.234Z,99847.72
2022-09-12T04:40:38.846Z,99848.28
2022-09-12T04:45:40.485Z,99841.47
2022-09-12T04:50:42.105Z,99846.75
2022-09-12T04:55:43.769Z,99864.06
2022-09-12T05:00:45.390Z,99858.13
2022-09-12T05:05:46.992Z,99865.88
2022-09-12T05:10:48.597Z,99857.13
2022-09-12T05:15:57.860Z,99859.88
2022-09-12T05:21:01.051Z,99859.41
2022-09-12T05:26:04.694Z,99879.16
2022-09-12T05:31:13.537Z,99879.94
2022-09-12T05:36:20.822Z,99878.34
2022-09-12T05:41:25.588Z,99878.41
2022-09-12T05:46:32.745Z,99890.75
2022-09-12T05:51:38.073Z,99892.75
2022-09-12T05:56:42.522Z,99890.69
2022-09-12T06:01:44.829Z,99889.47
2022-09-12T06:06:46.926Z,99886.72
2022-09-12T06:11:48.553Z,99889.06
2022-09-12T06:16:50.623Z,99898.94
2022-09-12T06:21:52.776Z,99895.69
2022-09-12T06:26:54.601Z,99899.97
2022-09-12T06:31:56.201Z,99905.88
2022-09-12T06:36:58.004Z,99896.25
2022-09-12T06:41:59.611Z,99897.69
2022-09-12T06:47:10.981Z,99894.94
2022-09-12T06:52:12.655Z,99903.63
2022-09-12T06:57:14.781Z,99909.88
2022-09-12T07:02:16.403Z,99913.00
2022-09-12T07:07:18.064Z,99910.41
2022-09-12T07:12:19.685Z,99917.94
2022-09-12T07:17:21.328Z,99919.69
2022-09-12T07:22:23.029Z,99916.69
2022-09-12T07:27:24.706Z,99938.97
2022-09-12T07:32:27.079Z,99933.25
2022-09-12T07:37:33.030Z,99929.63
2022-09-12T07:42:34.659Z,99935.19
2022-09-12T07:47:36.566Z,99927.97
2022-09-12T07:52:38.213Z,99930.53
2022-09-12T07:57:39.837Z,99929.03
2022-09-12T08:02:41.511Z,99931.56
2022-09-12T08:07:43.163Z,99928.91
2022-09-12T08:12:44.802Z,99929.97
2022-09-12T08:17:46.428Z,99938.72
2022-09-12T08:22:48.083Z,99931.94
2022-09-12T08:27:49.706Z,99931.81
2022-09-12T08:32:51.314Z,99932.06
2022-09-12T08:37:52.908Z,99941.06
2022-09-12T08:43:01.525Z,99934.31
2022-09-12T08:48:06.028Z,99937.47
2022-09-12T08:53:16.368Z,99926.75
2022-09-12T08:58:22.820Z,99927.88
2022-09-12T09:03:49.389Z,99922.44
2022-09-12T09:09:22.088Z,99919.56
2022-09-12T09:14:59.162Z,99918.06
2022-09-12T09:20:16.308Z,99911.22
2022-09-12T09:25:24.495Z,99905.03
2022-09-12T09:30:26.534Z,99908.28
2022-09-12T09:35:49.074Z,99896.91
2022-09-12T09:41:07.136Z,99902.00
2022-09-12T09:46:08.950Z,99891.25
2022-09-12T09:51:11.893Z,99886.72
2022-09-12T09:56:29.223Z,99881.50
2022-09-12T10:01:30.954Z,99876.91
2022-09-12T10:06:34.408Z,99882.66
2022-09-12T10:11:39.764Z,99877.53
2022-09-12T10:16:53.419Z,99882.16
2022-09-12T10:21:56.247Z,99873.69
2022-09-12T10:27:05.872Z,99870.50
2022-09-12T10:32:09.331Z,99872.00
2022-09-12T10:37:28.851Z,99861.53
2022-09-12T10:42:50.438Z,99863.59
2022-09-12T10:47:54.442Z,99859.41
2022-09-12T10:53:13.858Z,99850.31
2022-09-12T10:58:47.056Z,99849.16
2022-09-12T11:04:20.583Z,99832.66
2022-09-12T11:09:32.991Z,99830.28
2022-09-12T11:14:34.534Z,99830.47
2022-09-12T11:20:10.521Z,99824.59
2022-09-12T11:25:35.135Z,99821.44
2022-09-12T11:30:51.673Z,99821.44
2022-09-12T11:35:55.576Z,99827.13
2022-09-12T11:41:04.220Z,99821.25
2022-09-12T11:46:36.357Z,99825.88
2022-09-12T11:51:56.620Z,99823.84
2022-09-12T11:57:19.992Z,99826.56
2022-09-12T12:02:27.788Z,99826.84
2022-09-12T12:07:40.248Z,99826.84
2022-09-12T12:12:45.218Z,99821.22
2022-09-12T12:18:22.040Z,99825.81
2022-09-12T12:23:35.404Z,99812.84
2022-09-12T12:28:43.112Z,99810.91
2022-09-12T12:33:44.656Z,99802.94
2022-09-12T12:38:46.426Z,99802.53
2022-09-12T12:43:50.840Z,99790.41
2022-09-12T12:49:07.411Z,99795.66
2022-09-12T12:54:31.193Z,99792.16
2022-09-12T12:59:33.684Z,99784.66
2022-09-12T13:04:35.469Z,99777.56
2022-09-12T13:09:43.693Z,99773.13
2022-09-12T13:14:55.203Z,99763.22
2022-09-12T13:20:34.569Z,99757.44
2022-09-12T13:25:37.393Z,99757.44
2022-09-12T13:30:58.334Z,99741.47
2022-09-12T13:36:46.252Z,99748.47
2022-09-12T13:42:07.493Z,99737.41
2022-09-12T13:47:15.293Z,99746.41
2022-09-12T13:52:25.789Z,99733.97
2022-09-12T13:57:31.895Z,99728.47
2022-09-12T14:02:36.081Z,99735.75
2022-09-12T14:07:54.495Z,99734.50
2022-09-12T14:12:57.451Z,99733.59
2022-09-12T14:18:01.806Z,99738.94
2022-09-12T14:23:27.585Z,99723.09
2022-09-12T14:28:31.200Z,99718.00
2022-09-12T14:33:53.440Z,99722.03
2022-09-12T14:39:04.148Z,99718.03
2022-09-12T14:44:10.619Z,99714.81
2022-09-12T14:49:26.887Z,99704.16
2022-09-12T14:54:28.539Z,99710.59
2022-09-12T14:59:36.131Z,99707.34
2022-09-12T15:04:42.259Z,99702.38
2022-09-12T15:09:47.277Z,99698.31
2022-09-12T15:14:49.123Z,99701.53
2022-09-12T15:19:50.747Z,99690.56
2022-09-12T15:24:53.378Z,99694.66
2022-09-12T15:29:55.195Z,99696.41
2022-09-12T15:34:56.921Z,99679.38
2022-09-12T15:39:58.548Z,99687.75
2022-09-12T15:45:02.593Z,99688.50
2022-09-12T15:50:05.290Z,99684.34
2022-09-12T15:55:16.755Z,99689.47
2022-09-12T16:00:19.408Z,99691.22
2022-09-12T16:05:25.738Z,99689.97
2022-09-12T16:10:31.281Z,99695.34
2022-09-12T16:15:32.940Z,99677.41
2022-09-12T16:20:34.559Z,99675.13
2022-09-12T16:25:37.614Z,99671.22
2022-09-12T16:30:39.358Z,99674.09
2022-09-12T16:35:40.947Z,99664.44
2022-09-12T16:40:42.571Z,99665.66
2022-09-12T16:45:44.831Z,99655.53
2022-09-12T16:50:56.504Z,99653.47
2022-09-12T16:55:58.200Z,99655.31
2022-09-12T17:01:17.951Z,99650.63
2022-09-12T17:06:20.132Z,99647.72
2022-09-12T17:11:26.931Z,99637.88
2022-09-12T17:16:29.006Z,99638.44
2022-09-12T17:21:31.197Z,99636.75
2022-09-12T17:26:32.971Z,99645.16
2022-09-12T17:31:34.681Z,99639.06
2022-09-12T17:36:36.992Z,99637.41
2022-09-12T17:41:38.924Z,99640.06
2022-09-12T17:46:41.112Z,99633.16
2022-09-12T17:51:43.989Z,99644.25
2022-09-12T17:56:47.369Z,99644.72
2022-09-12T18:02:07.440Z,99646.59
2022-09-12T18:07:09.154Z,99647.88
2022-09-12T18:12:10.988Z,99644.56
2022-09-12T18:17:12.578Z,99645.63
2022-09-12T18:22:14.270Z,99647.38
2022-09-12T18:27:15.898Z,99648.63
2022-09-12T18:32:17.489Z,99635.31
2022-09-12T18:37:19.082Z,99646.66
2022-09-12T18:42:20.687Z,99646.66
2022-09-12T18:47:23.416Z,99654.59
2022-09-12T18:52:25.076Z,99651.81
2022-09-12T18:57:26.683Z,99656.00
2022-09-12T19:02:28.647Z,99657.47
2022-09-12T19:07:30.280Z,99654.97
2022-09-12T19:12:31.863Z,99649.94
2022-09-12T19:17:33.462Z,99649.00
2022-09-12T19:22:35.104Z,99643.50
2022-09-12T19:27:36.803Z,99633.63
2022-09-12T19:32:39.297Z,99642.00
2022-09-12T19:37:40.900Z,99638.34
2022-09-12T19:42:42.921Z,99636.34
2022-09-12T19:47:44.560Z,99638.88
2022-09-12T19:52:46.157Z,99631.19
2022-09-12T19:57:47.783Z,99628.88
2022-09-12T20:02:53.547Z,99631.00
2022-09-12T20:07:55.217Z,99630.16
2022-09-12T20:12:56.819Z,99633.47
2022-09-12T20:17:58.427Z,99645.44
2022-09-12T20:23:00.037Z,99628.63
2022-09-12T20:28:01.636Z,99633.25
2022-09-12T20:33:03.246Z,99628.50
2022-09-12T20:38:04.831Z,99628.13
2022-09-12T20:43:06.443Z,99619.78
2022-09-12T20:48:08.106Z,99613.53
2022-09-12T20:53:09.989Z,99616.53
2022-09-12T20:58:11.575Z,99616.13
2022-09-12T21:03:14.703Z,99622.59
2022-09-12T21:08:16.402Z,99611.03
2022-09-12T21:13:18.058Z,99603.19
2022-09-12T21:18:19.653Z,99601.44
2022-09-12T21:23:21.884Z,99600.34
2022-09-12T21:28:23.526Z,99594.84
2022-09-12T21:33:25.161Z,99593.91
2022-09-12T21:38:26.780Z,99597.88
2022-09-12T21:43:28.380Z,99587.91
2022-09-12T21:48:30.201Z,99587.13
2022-09-12T21:53:32.273Z,99590.75
2022-09-12T21:58:34.481Z,99584.78
2022-09-12T22:03:36.143Z,99581.59
2022-09-12T22:08:38.928Z,99565.69
2022-09-12T22:13:44.031Z,99565.59
2022-09-12T22:18:50.652Z,99560.06
2022-09-12T22:24:10.556Z,99562.50
2022-09-12T22:29:16.128Z,99566.63
2022-09-12T22:34:17.734Z,99562.38
2022-09-12T22:39:19.420Z,99544.34
2022-09-12T22:44:21.102Z,99541.78
2022-09-12T22:49:22.759Z,99532.19
2022-09-12T22:54:24.383Z,99520.78
2022-09-12T22:59:25.982Z,99515.03
2022-09-12T23:04:27.708Z,99514.19
2022-09-12T23:09:34.633Z,99503.50
2022-09-12T23:14:37.063Z,99509.81
2022-09-12T23:19:38.660Z,99496.91
2022-09-12T23:24:40.352Z,99499.53
2022-09-12T23:29:41.984Z,99491.97
2022-09-12T23:34:43.579Z,99490.59
2022-09-12T23:39:45.239Z,99483.69
2022-09-12T23:44:46.854Z,99481.75
2022-09-12T23:49:48.480Z,99477.47
2022-09-12T23:54:50.067Z,99465.31
2022-09-12T23:59:51.739Z,99479.50
